Time;durP1;ratioP1;P1;durP2;ratioP2;P2;SDS_P1;SDS_P2;PMS_P1;PMS_P2;Temp;Humidity;BMP_temperature;BMP_pressure;BME280_temperature;BME280_humidity;BME280_pressure;Samples;Min_cycle;Max_cycle;Signal;HPM_P1;HPM_P2
2023/04/22 00:01:11;;;;;;;8.17;7.97;;;20.80;56.30;;;;;;5072044;28;20535;-63
2023/04/22 00:03:40;;;;;;;9.00;8.80;;;20.80;56.40;;;;;;5078068;28;20446;-61
2023/04/22 00:06:08;;;;;;;8.40;8.20;;;20.80;56.40;;;;;;5091931;28;20478;-61
2023/04/22 00:08:34;;;;;;;8.30;8.10;;;20.80;56.40;;;;;;5091828;28;20537;-63
2023/04/22 00:11:01;;;;;;;8.40;8.20;;;20.80;56.50;;;;;;5092072;28;20504;-62
2023/04/22 00:13:28;;;;;;;7.80;7.60;;;20.80;56.40;;;;;;5091674;28;20491;-60
2023/04/22 00:15:55;;;;;;;9.13;8.93;;;20.80;56.50;;;;;;5091708;28;20881;-62
2023/04/22 00:18:23;;;;;;;8.77;8.57;;;20.80;56.50;;;;;;5091685;28;20511;-61
2023/04/22 00:20:50;;;;;;;8.67;8.47;;;20.80;56.60;;;;;;5091912;28;20482;-63
2023/04/22 00:23:17;;;;;;;8.13;7.93;;;20.70;56.50;;;;;;5091503;28;20490;-63
2023/04/22 00:25:44;;;;;;;8.70;8.50;;;20.70;56.50;;;;;;5091109;28;20450;-62
2023/04/22 00:28:11;;;;;;;7.83;7.63;;;20.70;57.10;;;;;;5091465;28;20529;-63
2023/04/22 00:30:38;;;;;;;8.30;8.10;;;20.70;56.60;;;;;;5091670;28;20529;-62
2023/04/22 00:33:05;;;;;;;8.47;8.27;;;20.70;56.70;;;;;;5091321;28;20521;-61
2023/04/22 00:35:33;;;;;;;8.90;8.60;;;20.70;56.70;;;;;;5091654;28;20473;-61
2023/04/22 00:38:00;;;;;;;8.03;7.83;;;20.70;56.70;;;;;;5091447;28;21035;-61
2023/04/22 00:40:27;;;;;;;8.57;8.27;;;20.70;56.70;;;;;;5091650;28;20474;-62
2023/04/22 00:42:55;;;;;;;8.57;8.20;;;20.70;56.80;;;;;;5091204;28;20875;-62
2023/04/22 00:45:22;;;;;;;7.90;7.70;;;20.70;56.80;;;;;;5091567;28;20478;-63
2023/04/22 00:47:49;;;;;;;8.60;8.20;;;20.70;56.80;;;;;;5091296;28;20568;-61
2023/04/22 00:50:16;;;;;;;8.33;8.13;;;20.70;56.80;;;;;;5091388;28;20493;-62
2023/04/22 00:52:44;;;;;;;9.10;8.70;;;20.70;56.90;;;;;;5091407;28;21016;-61
2023/04/22 00:55:12;;;;;;;8.30;8.10;;;20.70;56.90;;;;;;5091186;28;20866;-61
2023/04/22 00:57:39;;;;;;;9.10;8.90;;;20.60;56.90;;;;;;5091354;28;20481;-62
2023/04/22 01:00:08;;;;;;;8.60;8.40;;;20.60;56.80;;;;;;5091410;28;20526;-61
2023/04/22 01:02:36;;;;;;;8.67;8.33;;;20.60;56.90;;;;;;5090955;28;20892;-61
2023/04/22 01:05:03;;;;;;;8.83;8.63;;;20.60;56.90;;;;;;5091332;28;20474;-61
2023/04/22 01:07:31;;;;;;;8.57;8.27;;;20.60;57.50;;;;;;5093644;28;21012;-61
2023/04/22 01:10:00;;;;;;;8.50;8.30;;;20.60;57.00;;;;;;5094946;28;20885;-61
2023/04/22 01:12:27;;;;;;;8.50;8.30;;;20.60;57.00;;;;;;5095350;28;20893;-62
2023/04/22 01:14:54;;;;;;;8.47;8.20;;;20.60;57.10;;;;;;5095336;28;20526;-60
2023/04/22 01:17:23;;;;;;;8.47;8.27;;;20.60;57.10;;;;;;5094296;28;20482;-61
2023/04/22 01:19:51;;;;;;;8.37;8.17;;;20.60;57.10;;;;;;5094731;28;20941;-60
2023/04/22 01:22:19;;;;;;;8.77;8.43;;;20.60;57.10;;;;;;5095241;28;20466;-62
2023/04/22 01:24:47;;;;;;;8.73;8.50;;;20.60;57.10;;;;;;5095267;28;20537;-61
2023/04/22 01:27:14;;;;;;;9.40;9.10;;;20.60;57.20;;;;;;5094511;28;20581;-62
2023/04/22 01:29:41;;;;;;;7.97;7.77;;;20.60;57.20;;;;;;5094936;28;20942;-61
2023/04/22 01:32:08;;;;;;;8.90;8.60;;;20.60;57.20;;;;;;5094810;28;20508;-61
2023/04/22 01:34:35;;;;;;;8.30;8.10;;;20.60;57.20;;;;;;5095047;28;20566;-63
2023/04/22 01:37:02;;;;;;;8.97;8.77;;;20.60;57.20;;;;;;5094522;28;20525;-62
2023/04/22 01:39:30;;;;;;;8.27;8.07;;;20.60;57.30;;;;;;5095211;28;20470;-62
2023/04/22 01:41:58;;;;;;;8.30;8.10;;;20.60;57.30;;;;;;5094846;28;20566;-63
2023/04/22 01:44:26;;;;;;;8.60;8.30;;;20.50;57.30;;;;;;5094789;28;20474;-63
2023/04/22 01:46:53;;;;;;;8.67;8.47;;;20.60;57.40;;;;;;5094181;28;20478;-63
2023/04/22 01:49:19;;;;;;;8.70;8.47;;;20.50;57.40;;;;;;5094584;28;20485;-63
2023/04/22 01:51:46;;;;;;;9.10;8.90;;;20.50;57.40;;;;;;5094577;28;20545;-64
2023/04/22 01:54:15;;;;;;;8.63;8.43;;;20.50;57.40;;;;;;5094562;28;20521;-63
2023/04/22 01:56:42;;;;;;;8.63;8.33;;;20.50;57.40;;;;;;5094066;28;20481;-63
2023/04/22 01:59:11;;;;;;;9.10;8.80;;;20.50;57.50;;;;;;5094405;28;20451;-63
2023/04/22 02:01:38;;;;;;;8.37;8.17;;;20.50;57.50;;;;;;5094242;28;20466;-60
2023/04/22 02:04:05;;;;;;;8.57;8.37;;;20.50;57.60;;;;;;5094456;28;20525;-62
2023/04/22 02:06:32;;;;;;;9.13;8.83;;;20.50;57.60;;;;;;5087763;28;20524;-63
2023/04/22 02:08:58;;;;;;;8.30;8.10;;;20.50;57.60;;;;;;5073956;28;20470;-63
2023/04/22 02:11:25;;;;;;;8.40;8.20;;;20.50;57.60;;;;;;5073923;28;20550;-62
2023/04/22 02:13:52;;;;;;;7.90;7.70;;;20.50;57.70;;;;;;5073969;28;20478;-60
2023/04/22 02:16:20;;;;;;;8.33;8.07;;;20.50;58.20;;;;;;5073829;28;20479;-62
2023/04/22 02:18:47;;;;;;;8.30;8.10;;;20.50;57.70;;;;;;5072531;28;20526;-62
2023/04/22 02:21:14;;;;;;;8.97;8.77;;;20.50;57.70;;;;;;5073807;28;20475;-61
2023/04/22 02:23:41;;;;;;;7.97;7.77;;;20.50;57.70;;;;;;5073842;28;20905;-60
2023/04/22 02:26:08;;;;;;;8.80;8.50;;;20.50;57.70;;;;;;5073648;28;20546;-62
2023/04/22 02:28:35;;;;;;;7.90;7.70;;;20.50;57.70;;;;;;5073444;28;20471;-60
2023/04/22 02:31:02;;;;;;;7.67;7.47;;;20.50;57.80;;;;;;5073472;28;20538;-62
2023/04/22 02:33:30;;;;;;;7.67;7.47;;;20.50;57.70;;;;;;5073625;28;20486;-62
2023/04/22 02:35:57;;;;;;;7.47;7.30;;;20.50;57.70;;;;;;5073446;28;20471;-59
2023/04/22 02:38:24;;;;;;;9.47;9.27;;;20.50;57.70;;;;;;5073319;28;20482;-62
2023/04/22 02:40:51;;;;;;;8.93;8.73;;;20.50;57.70;;;;;;5073476;28;20479;-62
2023/04/22 02:43:18;;;;;;;8.00;7.80;;;20.50;57.70;;;;;;5073167;28;20509;-62
2023/04/22 02:45:44;;;;;;;8.97;8.67;;;20.50;57.70;;;;;;5073367;28;20475;-62
2023/04/22 02:48:11;;;;;;;8.53;8.27;;;20.50;57.70;;;;;;5072926;28;21051;-60
2023/04/22 02:50:40;;;;;;;8.10;7.90;;;20.40;57.70;;;;;;5073282;28;20459;-63
2023/04/22 02:53:07;;;;;;;7.70;7.50;;;20.40;57.70;;;;;;5073108;28;20546;-63
2023/04/22 02:55:34;;;;;;;8.50;8.30;;;20.40;57.80;;;;;;5073297;28;20979;-61
2023/04/22 02:58:01;;;;;;;7.60;7.40;;;20.40;57.80;;;;;;5072810;28;20486;-61
2023/04/22 03:00:28;;;;;;;7.70;7.60;;;20.40;57.80;;;;;;5073006;28;20880;-61
2023/04/22 03:02:55;;;;;;;8.50;8.30;;;20.40;57.80;;;;;;5072968;28;20550;-63
2023/04/22 03:05:22;;;;;;;7.10;7.00;;;20.40;57.80;;;;;;5072859;28;20946;-63
2023/04/22 03:07:50;;;;;;;7.67;7.47;;;20.40;57.90;;;;;;5072647;28;20925;-62
2023/04/22 03:10:17;;;;;;;7.63;7.50;;;20.40;57.90;;;;;;5072937;28;20444;-61
2023/04/22 03:12:44;;;;;;;7.47;7.27;;;20.40;57.90;;;;;;5072704;28;20490;-60
2023/04/22 03:15:12;;;;;;;7.10;7.00;;;20.40;57.90;;;;;;5072849;28;20479;-59
2023/04/22 03:17:39;;;;;;;7.70;7.50;;;20.40;58.00;;;;;;5072371;28;20475;-60
2023/04/22 03:20:07;;;;;;;7.77;7.57;;;20.40;58.00;;;;;;5072606;28;20965;-60
2023/04/22 03:22:34;;;;;;;7.83;7.63;;;20.40;58.00;;;;;;5072583;28;20514;-60
2023/04/22 03:25:03;;;;;;;6.97;6.83;;;20.40;58.10;;;;;;5072622;28;20531;-61
2023/04/22 03:27:30;;;;;;;7.80;7.60;;;20.40;58.10;;;;;;5072283;28;20479;-61
2023/04/22 03:29:56;;;;;;;7.93;7.73;;;20.40;58.10;;;;;;5071994;28;20538;-61
2023/04/22 03:32:23;;;;;;;8.00;7.80;;;20.40;58.10;;;;;;5072395;28;20491;-62
2023/04/22 03:34:50;;;;;;;7.20;7.00;;;20.40;58.10;;;;;;5072431;28;20550;-62
2023/04/22 03:37:17;;;;;;;7.30;7.10;;;20.40;58.10;;;;;;5072027;28;20997;-61
2023/04/22 03:39:44;;;;;;;7.90;7.70;;;20.40;58.20;;;;;;5072227;28;20866;-61
2023/04/22 03:42:13;;;;;;;7.87;7.70;;;20.40;58.20;;;;;;5072064;28;21017;-62
2023/04/22 03:44:40;;;;;;;7.10;7.00;;;20.40;58.20;;;;;;5072173;28;20479;-62
2023/04/22 03:47:07;;;;;;;6.63;6.50;;;20.40;58.20;;;;;;5071970;28;20515;-61
2023/04/22 03:49:34;;;;;;;7.70;7.50;;;20.40;58.30;;;;;;5072150;28;20444;-61
2023/04/22 03:52:01;;;;;;;7.20;7.00;;;20.40;58.30;;;;;;5071954;28;20550;-61
2023/04/22 03:54:28;;;;;;;7.50;7.30;;;20.40;58.30;;;;;;5072047;28;20454;-62
2023/04/22 03:56:55;;;;;;;7.50;7.40;;;20.40;58.30;;;;;;5071804;28;20846;-59
2023/04/22 03:59:23;;;;;;;8.30;8.10;;;20.40;58.30;;;;;;5071847;28;20526;-61
2023/04/22 04:01:51;;;;;;;7.90;7.70;;;20.40;58.30;;;;;;5072144;28;20521;-63
2023/04/22 04:04:18;;;;;;;7.00;6.80;;;20.40;58.40;;;;;;5072110;28;20471;-63
2023/04/22 04:06:45;;;;;;;7.70;7.50;;;20.40;58.40;;;;;;5071632;28;20490;-63
2023/04/22 04:09:12;;;;;;;7.53;7.33;;;20.40;58.40;;;;;;5071730;28;20454;-63
2023/04/22 04:11:39;;;;;;;7.70;7.50;;;20.40;58.40;;;;;;5071538;28;20554;-63
2023/04/22 04:14:06;;;;;;;8.63;8.40;;;20.30;58.40;;;;;;5071745;28;20934;-63
2023/04/22 04:16:35;;;;;;;7.67;7.47;;;20.30;58.40;;;;;;5071543;28;20946;-61
2023/04/22 04:19:01;;;;;;;8.53;8.33;;;20.30;58.50;;;;;;5077956;28;20494;-63
2023/04/22 04:21:32;;;;;;;8.43;8.23;;;20.40;58.70;;;;;;5091561;28;20869;-63
2023/04/22 04:23:59;;;;;;;8.93;8.70;;;20.30;58.70;;;;;;5091868;28;20892;-63
2023/04/22 04:26:27;;;;;;;8.57;8.27;;;20.40;58.90;;;;;;5091506;28;20859;-63
2023/04/22 04:28:54;;;;;;;7.97;7.73;;;20.40;59.00;;;;;;5091446;28;20553;-63
2023/04/22 04:31:23;;;;;;;7.53;7.33;;;20.40;59.30;;;;;;5091425;28;20462;-63
2023/04/22 04:33:52;;;;;;;7.90;7.70;;;20.30;59.40;;;;;;5091713;28;20603;-61
2023/04/22 04:36:19;;;;;;;8.90;8.60;;;20.30;59.40;;;;;;5091419;28;20952;-61
2023/04/22 04:38:47;;;;;;;9.00;8.80;;;20.30;59.40;;;;;;5091460;28;20438;-62
2023/04/22 04:41:14;;;;;;;8.60;8.30;;;20.30;59.40;;;;;;5090715;28;20442;-63
2023/04/22 04:43:41;;;;;;;8.17;7.97;;;20.30;59.30;;;;;;5091649;28;20504;-68
2023/04/22 04:46:08;;;;;;;8.90;8.70;;;20.40;59.80;;;;;;5091584;28;20862;-68
2023/04/22 04:48:35;;;;;;;8.63;8.23;;;20.50;59.60;;;;;;5072383;28;20923;-68
2023/04/22 04:51:05;;;;;;;8.50;8.30;;;20.50;59.50;;;;;;5071576;28;20457;-67
2023/04/22 04:53:32;;;;;;;8.30;8.10;;;20.50;59.30;;;;;;5071570;28;20813;-68
2023/04/22 04:56:00;;;;;;;8.77;8.40;;;20.60;59.30;;;;;;5071894;28;20471;-68
2023/04/22 04:58:27;;;;;;;9.10;8.90;;;20.60;59.10;;;;;;5071557;28;20448;-66
2023/04/22 05:00:54;;;;;;;8.30;8.10;;;20.70;59.10;;;;;;5071253;28;20489;-64
2023/04/22 05:03:21;;;;;;;8.60;8.40;;;20.70;58.90;;;;;;5071834;28;20514;-63
2023/04/22 05:05:48;;;;;;;7.60;7.40;;;20.80;58.80;;;;;;5071817;28;20475;-63
2023/04/22 05:08:16;;;;;;;8.60;8.30;;;20.80;58.30;;;;;;5086273;28;20486;-62
2023/04/22 05:10:43;;;;;;;8.70;8.27;;;20.80;58.10;;;;;;5091936;28;20465;-62
2023/04/22 05:13:10;;;;;;;8.20;8.00;;;20.80;58.50;;;;;;5091968;28;20498;-62
2023/04/22 05:15:37;;;;;;;9.67;9.13;;;20.80;58.90;;;;;;5091545;28;20473;-65
2023/04/22 05:18:05;;;;;;;9.70;9.40;;;20.80;58.70;;;;;;5090560;28;20473;-63
2023/04/22 05:20:32;;;;;;;9.80;9.20;;;20.90;58.90;;;;;;5091562;28;20474;-60
2023/04/22 05:22:59;;;;;;;8.90;8.60;;;20.90;58.60;;;;;;5091442;28;20501;-67
2023/04/22 05:25:27;;;;;;;8.63;8.43;;;20.90;58.70;;;;;;5091798;28;20442;-65
2023/04/22 05:27:54;;;;;;;8.80;8.53;;;20.90;58.70;;;;;;5080937;28;21065;-66
2023/04/22 05:30:21;;;;;;;8.73;8.33;;;20.90;58.70;;;;;;5071299;28;20821;-66
2023/04/22 05:32:48;;;;;;;8.27;8.03;;;20.90;58.60;;;;;;5072979;28;20467;-60
2023/04/22 05:35:14;;;;;;;8.97;8.67;;;20.90;58.60;;;;;;5071970;28;20494;-60
2023/04/22 05:37:41;;;;;;;8.50;8.20;;;20.90;58.30;;;;;;5071536;28;20496;-61
2023/04/22 05:40:09;;;;;;;8.87;8.57;;;21.00;57.90;;;;;;5071712;28;20945;-61
2023/04/22 05:42:37;;;;;;;8.60;8.40;;;21.00;57.70;;;;;;5089069;22;20907;-61
2023/04/22 05:45:05;;;;;;;8.70;8.50;;;21.00;57.80;;;;;;5091693;28;20489;-62
2023/04/22 05:47:32;;;;;;;9.70;9.20;;;21.10;58.10;;;;;;5111201;28;21038;-61
2023/04/22 05:49:59;;;;;;;9.07;8.77;;;21.20;58.20;;;;;;5111362;28;20987;-61
2023/04/22 05:52:26;;;;;;;8.90;8.60;;;21.20;58.20;;;;;;5111784;28;20974;-61
2023/04/22 05:54:53;;;;;;;8.73;8.20;;;21.20;58.50;;;;;;5114917;28;20442;-61
2023/04/22 05:57:20;;;;;;;9.18;8.88;;;21.20;58.90;;;;;;5105468;28;20527;-67
2023/04/22 05:59:48;;;;;;;10.23;9.83;;;21.30;59.60;;;;;;5094667;28;20296;-66
2023/04/22 06:02:15;;;;;;;9.70;9.50;;;21.30;59.40;;;;;;5094362;28;20615;-66
2023/04/22 06:04:42;;;;;;;9.07;8.87;;;21.30;59.50;;;;;;5093693;28;20794;-67
2023/04/22 06:07:10;;;;;;;9.50;9.20;;;21.30;59.60;;;;;;5094211;28;20895;-68
2023/04/22 06:09:37;;;;;;;9.27;8.97;;;21.30;59.80;;;;;;5094784;28;20510;-67
2023/04/22 06:12:05;;;;;;;9.67;9.37;;;21.40;60.00;;;;;;5094312;28;20490;-68
2023/04/22 06:14:32;;;;;;;10.13;9.90;;;21.40;60.10;;;;;;5097273;28;20861;-70
2023/04/22 06:17:01;;;;;;;9.60;9.40;;;21.40;60.10;;;;;;5096112;28;20473;-67
2023/04/22 06:19:28;;;;;;;9.60;9.40;;;21.40;60.10;;;;;;5096240;28;20466;-68
2023/04/22 06:21:58;;;;;;;10.40;10.07;;;21.50;60.20;;;;;;5095415;28;20486;-67
2023/04/22 06:24:25;;;;;;;10.17;9.87;;;21.40;60.00;;;;;;5095507;28;20453;-61
2023/04/22 06:26:52;;;;;;;10.93;10.63;;;21.50;60.30;;;;;;5095381;28;20477;-62
2023/04/22 06:29:19;;;;;;;10.50;10.00;;;21.50;60.10;;;;;;5094897;28;20509;-60
2023/04/22 06:31:45;;;;;;;11.10;10.33;;;21.50;59.70;;;;;;5095243;28;20458;-62
2023/04/22 06:34:14;;;;;;;10.40;9.90;;;21.50;59.60;;;;;;5094031;28;20438;-62
2023/04/22 06:36:41;;;;;;;10.10;9.70;;;21.60;59.70;;;;;;5093781;28;20474;-61
2023/04/22 06:39:09;;;;;;;9.70;9.50;;;21.50;59.50;;;;;;5093748;28;20863;-61
2023/04/22 06:41:36;;;;;;;10.33;10.03;;;21.60;59.70;;;;;;5094567;28;20499;-61
2023/04/22 06:44:03;;;;;;;11.30;10.83;;;21.60;59.70;;;;;;5094598;28;20847;-64
2023/04/22 06:46:31;;;;;;;10.63;10.23;;;21.60;59.80;;;;;;5094092;28;20929;-60
2023/04/22 06:48:58;;;;;;;9.60;9.00;;;21.70;60.80;;;;;;5092694;28;20875;-62
2023/04/22 06:51:26;;;;;;;11.03;10.63;;;21.70;61.80;;;;;;5093951;28;20493;-63
2023/04/22 06:53:53;;;;;;;10.20;9.90;;;21.80;61.60;;;;;;5094309;28;20478;-63
2023/04/22 06:56:20;;;;;;;10.57;10.17;;;21.90;61.60;;;;;;5094411;28;20486;-62
2023/04/22 06:58:47;;;;;;;11.10;10.70;;;21.80;61.50;;;;;;5094116;28;20941;-62
2023/04/22 07:01:14;;;;;;;11.03;10.70;;;21.80;61.40;;;;;;5094335;28;20957;-60
2023/04/22 07:03:41;;;;;;;10.97;10.67;;;21.80;61.40;;;;;;5093847;28;20466;-62
2023/04/22 07:06:08;;;;;;;10.80;10.40;;;21.80;61.60;;;;;;5093860;28;20482;-62
2023/04/22 07:08:37;;;;;;;11.53;10.63;;;21.80;61.30;;;;;;5094338;28;20522;-62
2023/04/22 07:11:04;;;;;;;10.63;10.33;;;21.90;61.10;;;;;;5094812;28;20478;-64
2023/04/22 07:13:32;;;;;;;9.70;9.47;;;21.90;61.30;;;;;;5096301;28;20497;-65
2023/04/22 07:16:00;;;;;;;10.87;10.37;;;21.80;61.10;;;;;;5114382;28;20446;-63
2023/04/22 07:18:26;;;;;;;10.60;10.30;;;21.80;61.60;;;;;;5105364;28;20470;-63
2023/04/22 07:20:53;;;;;;;10.80;10.30;;;21.70;62.50;;;;;;5094939;28;20470;-64
2023/04/22 07:23:21;;;;;;;10.50;10.20;;;21.70;61.90;;;;;;5109959;28;20892;-64
2023/04/22 07:25:49;;;;;;;10.90;10.40;;;21.60;62.80;;;;;;5109607;28;20488;-63
2023/04/22 07:28:16;;;;;;;9.73;9.43;;;21.60;62.00;;;;;;5099760;28;20519;-69
2023/04/22 07:30:43;;;;;;;10.67;10.27;;;21.60;62.40;;;;;;5094554;28;20517;-61
2023/04/22 07:33:10;;;;;;;10.20;9.87;;;21.60;62.50;;;;;;5073310;28;20463;-63
2023/04/22 07:35:37;;;;;;;10.50;10.20;;;21.70;62.10;;;;;;5074420;28;20965;-62
2023/04/22 07:38:04;;;;;;;9.83;9.63;;;21.70;61.80;;;;;;5081658;28;20473;-65
2023/04/22 07:40:31;;;;;;;9.93;9.73;;;21.80;62.00;;;;;;5092670;28;20534;-61
2023/04/22 07:43:00;;;;;;;9.90;9.70;;;21.90;61.80;;;;;;5092214;28;20931;-61
2023/04/22 07:45:27;;;;;;;10.10;9.80;;;22.00;61.30;;;;;;5092576;28;20511;-62
2023/04/22 07:47:53;;;;;;;10.73;10.33;;;22.10;61.00;;;;;;5092254;28;20488;-58
2023/04/22 07:50:20;;;;;;;10.90;10.50;;;22.00;60.30;;;;;;5093665;28;20885;-55
2023/04/22 07:52:47;;;;;;;10.90;10.60;;;22.10;60.60;;;;;;5092366;28;20537;-58
2023/04/22 07:55:14;;;;;;;10.40;10.00;;;22.10;60.50;;;;;;5092479;28;20478;-58
2023/04/22 07:57:41;;;;;;;10.53;10.23;;;22.20;60.40;;;;;;5093441;28;20493;-56
2023/04/22 08:00:11;;;;;;;11.67;11.33;;;22.30;60.20;;;;;;5107756;28;20528;-57
2023/04/22 08:02:38;;;;;;;10.70;10.40;;;22.30;60.00;;;;;;5112069;28;20493;-59
2023/04/22 08:05:05;;;;;;;9.80;9.60;;;22.30;59.80;;;;;;5105243;28;20478;-57
2023/04/22 08:07:32;;;;;;;10.20;9.97;;;22.40;59.70;;;;;;5092227;28;20876;-57
2023/04/22 08:09:59;;;;;;;10.20;10.00;;;22.40;59.60;;;;;;5107756;28;21022;-58
2023/04/22 08:12:26;;;;;;;10.93;10.53;;;22.40;59.40;;;;;;5112447;28;20468;-57
2023/04/22 08:14:53;;;;;;;11.03;10.50;;;22.40;59.30;;;;;;5112269;28;20477;-63
2023/04/22 08:17:21;;;;;;;10.97;10.67;;;22.40;59.90;;;;;;5111178;28;20484;-64
2023/04/22 08:19:50;;;;;;;10.73;10.43;;;22.40;61.00;;;;;;5102795;28;20446;-63
2023/04/22 08:22:22;;;;;;;10.77;10.37;;;22.40;60.10;;;;;;5091987;28;20830;-62
2023/04/22 08:24:49;;;;;;;9.47;9.27;;;22.50;59.80;;;;;;5095028;28;20449;-58
2023/04/22 08:27:18;;;;;;;9.70;9.40;;;22.50;59.40;;;;;;5094577;28;20485;-59
2023/04/22 08:29:47;;;;;;;10.30;10.00;;;22.50;59.20;;;;;;5092698;28;20510;-63
2023/04/22 08:32:15;;;;;;;8.88;8.57;;;22.60;59.60;;;;;;5093112;28;20448;-61
2023/04/22 08:34:43;;;;;;;10.27;10.00;;;22.60;59.50;;;;;;5092889;28;20231;-55
2023/04/22 08:37:10;;;;;;;10.40;10.00;;;22.70;59.20;;;;;;5093992;28;20477;-58
2023/04/22 08:39:37;;;;;;;10.37;10.17;;;22.70;58.40;;;;;;5099018;28;20569;-66
2023/04/22 08:42:04;;;;;;;10.40;10.17;;;22.70;58.10;;;;;;5111426;28;20498;-64
2023/04/22 08:44:31;;;;;;;10.10;9.80;;;22.70;58.20;;;;;;5111067;28;20480;-67
2023/04/22 08:47:00;;;;;;;10.60;10.30;;;22.70;58.00;;;;;;5110404;28;20473;-70
2023/04/22 08:49:28;;;;;;;9.85;9.65;;;22.60;58.30;;;;;;5110774;28;20814;-66
2023/04/22 08:51:57;;;;;;;10.30;10.00;;;22.50;58.40;;;;;;5074261;28;20640;-67
2023/04/22 08:54:24;;;;;;;9.80;9.60;;;22.50;58.30;;;;;;5108584;28;20453;-66
2023/04/22 08:56:51;;;;;;;10.90;10.50;;;22.40;58.30;;;;;;5108954;28;20445;-66
2023/04/22 08:59:20;;;;;;;10.70;10.20;;;22.40;58.40;;;;;;5095424;28;20474;-66
2023/04/22 09:01:51;;;;;;;10.20;9.90;;;22.40;58.90;;;;;;5093106;28;20466;-68
2023/04/22 09:04:19;;;;;;;10.83;10.53;;;22.40;59.10;;;;;;5106457;28;20477;-71
2023/04/22 09:06:46;;;;;;;10.90;10.40;;;22.30;59.30;;;;;;5110412;28;20571;-69
2023/04/22 09:09:14;;;;;;;9.93;9.63;;;22.30;59.40;;;;;;5110694;28;20516;-70
2023/04/22 09:11:42;;;;;;;10.17;9.60;;;22.30;59.40;;;;;;5110977;28;20470;-69
2023/04/22 09:14:08;;;;;;;10.17;9.87;;;22.40;59.40;;;;;;5110671;28;20481;-70
2023/04/22 09:16:41;;;;;;;10.37;10.07;;;22.30;59.30;;;;;;5102236;28;20965;-69
2023/04/22 09:19:11;;;;;;;10.17;9.97;;;22.30;59.60;;;;;;5090608;28;20439;-63
2023/04/22 09:21:40;;;;;;;9.80;9.50;;;22.40;59.30;;;;;;5090483;28;20469;-67
2023/04/22 09:24:08;;;;;;;10.20;9.90;;;22.30;59.40;;;;;;5090294;28;20481;-67
2023/04/22 09:26:39;;;;;;;10.30;10.10;;;22.30;59.30;;;;;;5090102;28;20486;-68
2023/04/22 09:29:08;;;;;;;10.43;10.13;;;22.30;59.40;;;;;;5093349;28;20474;-71
2023/04/22 09:31:36;;;;;;;10.03;9.73;;;22.40;59.50;;;;;;5093826;28;20445;-70
2023/04/22 09:34:04;;;;;;;10.87;10.50;;;22.30;59.40;;;;;;5093809;28;20474;-69
2023/04/22 09:36:36;;;;;;;10.40;10.00;;;22.30;59.30;;;;;;5097363;28;20474;-68
2023/04/22 09:39:04;;;;;;;10.00;9.70;;;22.30;59.40;;;;;;5114833;28;20445;-66
2023/04/22 09:41:33;;;;;;;10.20;9.90;;;22.40;59.20;;;;;;5077371;28;1095054;-66
2023/04/22 09:44:02;;;;;;;10.80;10.50;;;22.30;58.80;;;;;;5115607;28;20469;-66
2023/04/22 09:46:30;;;;;;;10.13;9.90;;;22.40;58.30;;;;;;5115798;28;20441;-66
2023/04/22 09:48:59;;;;;;;10.47;10.17;;;22.40;58.20;;;;;;5115352;28;20504;-65
2023/04/22 09:51:26;;;;;;;11.20;10.80;;;22.40;58.20;;;;;;5115284;28;20524;-66
2023/04/22 09:54:03;;;;;;;12.17;11.50;;;22.50;58.40;;;;;;5115550;28;20514;-66
2023/04/22 09:56:47;;;;;;;12.13;11.17;;;22.50;58.60;;;;;;5115528;28;20544;-66
2023/04/22 09:59:20;;;;;;;14.47;13.20;;;22.50;59.00;;;;;;5112393;28;20444;-66
2023/04/22 10:01:47;;;;;;;13.43;12.40;;;22.60;59.40;;;;;;5095240;28;20466;-66
2023/04/22 10:04:15;;;;;;;14.50;12.20;;;22.60;61.50;;;;;;5095001;28;20937;-66
2023/04/22 10:06:43;;;;;;;15.30;13.43;;;22.70;62.60;;;;;;5102335;28;20446;-64
2023/04/22 10:09:11;;;;;;;16.17;14.47;;;22.60;66.50;;;;;;5101605;28;20582;-66
2023/04/22 10:11:39;;;;;;;13.93;12.73;;;22.60;73.20;;;;;;5110706;28;20461;-65
2023/04/22 10:14:09;;;;;;;15.00;13.67;;;22.60;76.20;;;;;;5114056;28;20960;-63
2023/04/22 10:16:39;;;;;;;18.97;14.37;;;22.50;77.20;;;;;;5095101;28;20537;-72
2023/04/22 10:19:08;;;;;;;16.23;13.80;;;22.60;77.30;;;;;;5111554;28;20442;-70
2023/04/22 10:21:36;;;;;;;14.17;13.20;;;22.60;77.40;;;;;;5115011;28;20448;-68
2023/04/22 10:24:04;;;;;;;14.30;12.87;;;22.60;75.70;;;;;;5114688;28;20465;-71
2023/04/22 10:26:43;;;;;;;17.00;12.47;;;22.70;75.60;;;;;;5115947;28;20495;-75
2023/04/22 10:29:15;;;;;;;13.70;12.53;;;22.60;75.60;;;;;;5096558;28;20516;-71
2023/04/22 10:31:44;;;;;;;13.97;12.77;;;22.60;75.90;;;;;;5095407;28;20830;-71
2023/04/22 10:34:13;;;;;;;14.67;13.13;;;22.60;75.70;;;;;;5099205;28;20474;-70
2023/04/22 10:36:57;;;;;;;18.33;14.80;;;22.60;76.20;;;;;;5096333;28;20446;-70
2023/04/22 10:39:24;;;;;;;15.67;14.00;;;22.60;76.30;;;;;;5097387;28;20447;-72
2023/04/22 10:41:53;;;;;;;14.07;12.70;;;22.60;76.20;;;;;;5114550;28;20505;-70
2023/04/22 10:44:21;;;;;;;13.80;12.73;;;22.60;75.20;;;;;;5114752;28;20492;-66
2023/04/22 10:47:01;;;;;;;24.43;16.03;;;22.60;74.70;;;;;;5097966;28;20453;-66
2023/04/22 10:49:31;;;;;;;12.87;12.17;;;22.80;73.40;;;;;;5094164;28;20470;-66
2023/04/22 10:52:00;;;;;;;13.30;12.13;;;22.90;71.80;;;;;;5095855;28;20561;-65
2023/04/22 10:54:59;;;;;;;11.90;10.80;;;23.00;70.60;;;;;;5094051;28;20968;-65
2023/04/22 10:57:48;;;;;;;12.13;11.50;;;22.90;68.40;;;;;;5096483;28;20941;-64
2023/04/22 11:00:40;;;;;;;12.67;11.97;;;22.80;68.80;;;;;;5107591;28;20482;-65
2023/04/22 11:03:14;;;;;;;12.33;11.10;;;22.70;70.00;;;;;;5113734;28;20472;-66
2023/04/22 11:05:41;;;;;;;12.87;12.07;;;22.70;70.00;;;;;;5112776;28;20442;-62
2023/04/22 11:08:13;;;;;;;12.77;12.00;;;22.70;71.60;;;;;;5092976;28;20446;-62
2023/04/22 11:10:42;;;;;;;12.03;11.27;;;22.70;72.40;;;;;;5093560;28;20565;-66
2023/04/22 11:13:11;;;;;;;12.27;11.47;;;22.70;71.90;;;;;;5105608;28;20471;-61
2023/04/22 11:15:39;;;;;;;12.63;11.57;;;22.70;71.50;;;;;;5100058;28;20453;-61
2023/04/22 11:18:17;;;;;;;12.90;12.00;;;22.70;70.90;;;;;;5092716;28;20478;-61
2023/04/22 11:20:44;;;;;;;11.50;10.97;;;22.70;69.80;;;;;;5093021;28;20956;-64
2023/04/22 11:23:11;;;;;;;11.40;10.80;;;22.70;69.80;;;;;;5092844;28;20553;-60
2023/04/22 11:25:38;;;;;;;11.20;10.60;;;22.70;69.70;;;;;;5094036;28;20856;-66
2023/04/22 11:28:05;;;;;;;11.57;11.00;;;22.70;68.30;;;;;;5108604;28;20499;-66
2023/04/22 11:30:32;;;;;;;11.27;10.87;;;22.90;65.40;;;;;;5112949;28;20564;-64
2023/04/22 11:33:03;;;;;;;11.00;10.60;;;23.00;65.00;;;;;;5112690;28;20979;-63
2023/04/22 11:35:34;;;;;;;11.60;11.10;;;23.10;62.40;;;;;;5112471;28;20481;-63
2023/04/22 11:38:02;;;;;;;11.70;11.07;;;23.10;62.70;;;;;;5112738;28;20492;-65
2023/04/22 11:40:32;;;;;;;11.53;11.07;;;23.20;63.60;;;;;;5100062;28;20474;-65
2023/04/22 11:43:00;;;;;;;10.40;10.00;;;23.20;63.50;;;;;;5113296;22;20478;-60
2023/04/22 11:45:28;;;;;;;11.13;10.63;;;23.20;62.80;;;;;;5090031;28;20945;-60
2023/04/22 11:47:55;;;;;;;11.00;10.60;;;23.30;63.20;;;;;;5092530;28;20482;-63
2023/04/22 11:50:24;;;;;;;10.40;10.10;;;23.30;62.90;;;;;;5092456;28;20478;-60
2023/04/22 11:52:54;;;;;;;11.03;10.63;;;23.40;62.60;;;;;;5093100;28;20500;-62
2023/04/22 11:55:23;;;;;;;10.87;10.57;;;23.40;61.60;;;;;;5081823;28;20647;-62
2023/04/22 11:57:58;;;;;;;11.10;10.60;;;23.40;61.80;;;;;;5072774;28;20443;-61
2023/04/22 12:00:28;;;;;;;10.27;9.97;;;23.50;59.70;;;;;;5086290;28;20525;-63
2023/04/22 12:02:57;;;;;;;10.67;10.30;;;23.50;60.40;;;;;;5072420;28;20491;-58
2023/04/22 12:05:38;;;;;;;10.73;10.33;;;23.50;61.30;;;;;;5086184;28;20450;-61
2023/04/22 12:08:09;;;;;;;10.90;10.50;;;23.50;61.40;;;;;;5075847;28;20478;-62
2023/04/22 12:10:41;;;;;;;11.47;10.97;;;23.50;60.10;;;;;;5083914;28;20573;-62
2023/04/22 12:13:09;;;;;;;10.97;10.50;;;23.40;61.30;;;;;;5072209;28;21000;-59
2023/04/22 12:15:41;;;;;;;10.80;10.40;;;23.30;62.40;;;;;;5072522;28;20881;-61
2023/04/22 12:18:08;;;;;;;11.60;11.10;;;23.20;62.70;;;;;;5055953;28;20957;-60
2023/04/22 12:20:35;;;;;;;11.57;11.07;;;23.20;63.00;;;;;;5072912;28;20482;-63
2023/04/22 12:23:03;;;;;;;10.97;10.57;;;23.20;63.10;;;;;;5072485;28;20982;-62
2023/04/22 12:25:33;;;;;;;11.30;10.70;;;23.20;63.00;;;;;;5073835;28;20479;-64
2023/04/22 12:28:00;;;;;;;11.23;10.83;;;23.10;62.90;;;;;;5072202;28;20533;-63
2023/04/22 12:30:27;;;;;;;11.13;10.83;;;23.10;63.00;;;;;;5072586;28;20485;-66
2023/04/22 12:32:54;;;;;;;9.10;8.60;;;23.10;63.00;;;;;;5090283;28;20501;-63
2023/04/22 12:35:21;;;;;;;8.60;8.20;;;23.10;62.80;;;;;;5085656;28;20938;-60
2023/04/22 12:37:48;;;;;;;8.40;8.20;;;23.20;62.40;;;;;;5072340;28;20961;-65
2023/04/22 12:40:15;;;;;;;8.00;7.80;;;23.20;63.20;;;;;;5072580;28;20475;-62
2023/04/22 12:42:43;;;;;;;8.37;8.03;;;23.20;62.20;;;;;;5072576;28;20514;-62